sensor_id;sensor_type;location;lat;lon;timestamp;P1;durP1;ratioP1;P2;durP2;ratioP2
22794;SDS011;11564;50.920;11.612;2023-06-14T00:01:18;3.60;;;3.33;;
22794;SDS011;11564;50.920;11.612;2023-06-14T00:03:45;3.73;;;3.43;;
22794;SDS011;11564;50.920;11.612;2023-06-14T00:06:12;4.40;;;4.03;;
22794;SDS011;11564;50.920;11.612;2023-06-14T00:08:38;7.03;;;3.67;;
22794;SDS011;11564;50.920;11.612;2023-06-14T00:11:05;5.37;;;3.80;;
22794;SDS011;11564;50.920;11.612;2023-06-14T00:13:30;3.77;;;3.47;;
22794;SDS011;11564;50.920;11.612;2023-06-14T00:15:56;3.40;;;3.10;;
22794;SDS011;11564;50.920;11.612;2023-06-14T00:18:22;3.90;;;3.60;;
22794;SDS011;11564;50.920;11.612;2023-06-14T00:20:54;3.97;;;3.50;;
22794;SDS011;11564;50.920;11.612;2023-06-14T00:23:20;3.80;;;3.50;;
22794;SDS011;11564;50.920;11.612;2023-06-14T00:25:46;4.13;;;3.73;;
22794;SDS011;11564;50.920;11.612;2023-06-14T00:28:12;11.53;;;4.53;;
22794;SDS011;11564;50.920;11.612;2023-06-14T00:30:38;9.10;;;3.83;;
22794;SDS011;11564;50.920;11.612;2023-06-14T00:33:04;4.70;;;3.47;;
22794;SDS011;11564;50.920;11.612;2023-06-14T00:35:30;5.10;;;3.97;;
22794;SDS011;11564;50.920;11.612;2023-06-14T00:37:55;4.23;;;3.67;;
22794;SDS011;11564;50.920;11.612;2023-06-14T00:40:21;3.77;;;3.47;;
22794;SDS011;11564;50.920;11.612;2023-06-14T00:42:47;3.97;;;3.67;;
22794;SDS011;11564;50.920;11.612;2023-06-14T00:45:13;3.80;;;3.50;;
22794;SDS011;11564;50.920;11.612;2023-06-14T00:47:39;4.20;;;3.90;;
22794;SDS011;11564;50.920;11.612;2023-06-14T00:50:07;4.97;;;3.60;;
22794;SDS011;11564;50.920;11.612;2023-06-14T00:52:34;6.97;;;4.30;;
22794;SDS011;11564;50.920;11.612;2023-06-14T00:55:00;3.70;;;3.40;;
22794;SDS011;11564;50.920;11.612;2023-06-14T00:57:26;6.70;;;3.87;;
22794;SDS011;11564;50.920;11.612;2023-06-14T00:59:52;7.57;;;3.87;;
22794;SDS011;11564;50.920;11.612;2023-06-14T01:02:17;11.17;;;4.10;;
22794;SDS011;11564;50.920;11.612;2023-06-14T01:04:44;8.07;;;3.60;;
22794;SDS011;11564;50.920;11.612;2023-06-14T01:12:31;4.70;;;3.40;;
22794;SDS011;11564;50.920;11.612;2023-06-14T01:15:06;4.60;;;3.27;;
22794;SDS011;11564;50.920;11.612;2023-06-14T01:17:32;7.53;;;4.00;;
22794;SDS011;11564;50.920;11.612;2023-06-14T01:20:01;4.63;;;3.63;;
22794;SDS011;11564;50.920;11.612;2023-06-14T01:22:28;4.33;;;3.60;;
22794;SDS011;11564;50.920;11.612;2023-06-14T01:24:54;6.13;;;3.30;;
22794;SDS011;11564;50.920;11.612;2023-06-14T01:27:23;3.73;;;3.33;;
22794;SDS011;11564;50.920;11.612;2023-06-14T01:29:53;6.27;;;3.73;;
22794;SDS011;11564;50.920;11.612;2023-06-14T01:32:22;6.37;;;3.97;;
22794;SDS011;11564;50.920;11.612;2023-06-14T01:34:50;6.57;;;3.13;;
22794;SDS011;11564;50.920;11.612;2023-06-14T01:37:16;6.03;;;2.93;;
22794;SDS011;11564;50.920;11.612;2023-06-14T01:39:43;3.93;;;3.07;;
22794;SDS011;11564;50.920;11.612;2023-06-14T01:42:10;4.13;;;3.60;;
22794;SDS011;11564;50.920;11.612;2023-06-14T01:44:37;3.67;;;3.07;;
22794;SDS011;11564;50.920;11.612;2023-06-14T01:47:04;5.00;;;3.60;;
22794;SDS011;11564;50.920;11.612;2023-06-14T01:49:32;5.53;;;3.47;;
22794;SDS011;11564;50.920;11.612;2023-06-14T01:51:59;4.03;;;3.50;;
22794;SDS011;11564;50.920;11.612;2023-06-14T01:54:25;4.73;;;3.23;;
22794;SDS011;11564;50.920;11.612;2023-06-14T01:56:52;3.63;;;3.20;;
22794;SDS011;11564;50.920;11.612;2023-06-14T01:59:18;3.87;;;3.50;;
22794;SDS011;11564;50.920;11.612;2023-06-14T02:01:43;4.80;;;3.60;;
22794;SDS011;11564;50.920;11.612;2023-06-14T02:04:11;4.60;;;3.30;;
22794;SDS011;11564;50.920;11.612;2023-06-14T02:06:36;4.60;;;4.03;;
22794;SDS011;11564;50.920;11.612;2023-06-14T02:09:02;4.70;;;4.10;;
22794;SDS011;11564;50.920;11.612;2023-06-14T02:11:28;4.40;;;4.10;;
22794;SDS011;11564;50.920;11.612;2023-06-14T02:13:54;6.73;;;3.40;;
22794;SDS011;11564;50.920;11.612;2023-06-14T02:16:21;6.47;;;4.50;;
22794;SDS011;11564;50.920;11.612;2023-06-14T02:18:47;6.10;;;3.80;;
22794;SDS011;11564;50.920;11.612;2023-06-14T02:21:13;4.40;;;3.70;;
22794;SDS011;11564;50.920;11.612;2023-06-14T02:23:39;4.00;;;3.70;;
22794;SDS011;11564;50.920;11.612;2023-06-14T02:26:05;3.90;;;3.60;;
22794;SDS011;11564;50.920;11.612;2023-06-14T02:28:30;6.27;;;3.20;;
22794;SDS011;11564;50.920;11.612;2023-06-14T02:30:56;3.57;;;3.27;;
22794;SDS011;11564;50.920;11.612;2023-06-14T02:33:22;3.47;;;3.17;;
22794;SDS011;11564;50.920;11.612;2023-06-14T02:35:47;4.10;;;3.47;;
22794;SDS011;11564;50.920;11.612;2023-06-14T02:38:13;3.73;;;3.20;;
22794;SDS011;11564;50.920;11.612;2023-06-14T02:40:39;4.67;;;3.83;;
22794;SDS011;11564;50.920;11.612;2023-06-14T02:43:07;11.50;;;3.60;;
22794;SDS011;11564;50.920;11.612;2023-06-14T02:45:33;5.73;;;3.90;;
22794;SDS011;11564;50.920;11.612;2023-06-14T02:47:58;3.50;;;3.20;;
22794;SDS011;11564;50.920;11.612;2023-06-14T02:50:24;4.00;;;3.63;;
22794;SDS011;11564;50.920;11.612;2023-06-14T02:52:49;13.90;;;3.60;;
22794;SDS011;11564;50.920;11.612;2023-06-14T02:55:15;3.60;;;3.30;;
22794;SDS011;11564;50.920;11.612;2023-06-14T02:57:41;5.57;;;3.87;;
22794;SDS011;11564;50.920;11.612;2023-06-14T03:00:06;5.23;;;3.67;;
22794;SDS011;11564;50.920;11.612;2023-06-14T03:02:38;4.10;;;3.27;;
22794;SDS011;11564;50.920;11.612;2023-06-14T03:05:03;4.93;;;3.23;;
22794;SDS011;11564;50.920;11.612;2023-06-14T03:07:31;4.60;;;3.77;;
22794;SDS011;11564;50.920;11.612;2023-06-14T03:09:57;4.00;;;3.50;;
22794;SDS011;11564;50.920;11.612;2023-06-14T03:12:23;3.37;;;3.10;;
22794;SDS011;11564;50.920;11.612;2023-06-14T03:14:49;5.40;;;3.60;;
22794;SDS011;11564;50.920;11.612;2023-06-14T03:17:15;6.70;;;2.70;;
22794;SDS011;11564;50.920;11.612;2023-06-14T03:19:42;9.77;;;3.77;;
22794;SDS011;11564;50.920;11.612;2023-06-14T03:22:08;3.77;;;3.47;;
22794;SDS011;11564;50.920;11.612;2023-06-14T03:24:36;9.80;;;3.93;;
22794;SDS011;11564;50.920;11.612;2023-06-14T03:27:02;4.17;;;3.63;;
22794;SDS011;11564;50.920;11.612;2023-06-14T03:29:28;6.20;;;4.20;;
22794;SDS011;11564;50.920;11.612;2023-06-14T03:32:01;8.00;;;4.10;;
22794;SDS011;11564;50.920;11.612;2023-06-14T03:34:27;11.10;;;3.57;;
22794;SDS011;11564;50.920;11.612;2023-06-14T03:36:53;3.53;;;3.23;;
22794;SDS011;11564;50.920;11.612;2023-06-14T03:39:19;8.03;;;4.77;;
22794;SDS011;11564;50.920;11.612;2023-06-14T03:41:45;2.93;;;2.73;;
22794;SDS011;11564;50.920;11.612;2023-06-14T03:44:11;6.20;;;3.37;;
22794;SDS011;11564;50.920;11.612;2023-06-14T03:46:36;3.40;;;3.10;;
22794;SDS011;11564;50.920;11.612;2023-06-14T03:49:02;6.07;;;3.00;;
22794;SDS011;11564;50.920;11.612;2023-06-14T03:51:28;3.33;;;2.77;;
22794;SDS011;11564;50.920;11.612;2023-06-14T03:53:54;4.47;;;3.17;;
22794;SDS011;11564;50.920;11.612;2023-06-14T03:56:20;3.77;;;3.50;;
22794;SDS011;11564;50.920;11.612;2023-06-14T03:58:46;2.97;;;2.77;;
22794;SDS011;11564;50.920;11.612;2023-06-14T04:01:12;4.67;;;2.90;;
22794;SDS011;11564;50.920;11.612;2023-06-14T04:03:37;3.67;;;3.47;;
22794;SDS011;11564;50.920;11.612;2023-06-14T04:06:05;3.80;;;3.23;;
22794;SDS011;11564;50.920;11.612;2023-06-14T04:08:31;5.80;;;2.83;;
22794;SDS011;11564;50.920;11.612;2023-06-14T04:10:57;3.50;;;3.20;;
22794;SDS011;11564;50.920;11.612;2023-06-14T04:13:22;10.97;;;3.93;;
22794;SDS011;11564;50.920;11.612;2023-06-14T04:15:48;8.07;;;2.90;;
22794;SDS011;11564;50.920;11.612;2023-06-14T04:18:14;3.60;;;3.30;;
22794;SDS011;11564;50.920;11.612;2023-06-14T04:20:39;3.23;;;2.57;;
22794;SDS011;11564;50.920;11.612;2023-06-14T04:23:15;8.47;;;3.33;;
22794;SDS011;11564;50.920;11.612;2023-06-14T04:25:43;3.90;;;2.93;;
22794;SDS011;11564;50.920;11.612;2023-06-14T04:28:12;4.23;;;3.00;;
22794;SDS011;11564;50.920;11.612;2023-06-14T04:30:39;9.50;;;2.90;;
22794;SDS011;11564;50.920;11.612;2023-06-14T04:33:05;4.40;;;3.33;;
22794;SDS011;11564;50.920;11.612;2023-06-14T04:35:31;7.53;;;3.17;;
22794;SDS011;11564;50.920;11.612;2023-06-14T04:37:58;5.93;;;3.57;;
22794;SDS011;11564;50.920;11.612;2023-06-14T04:40:24;6.77;;;3.27;;
22794;SDS011;11564;50.920;11.612;2023-06-14T04:42:50;3.00;;;2.80;;
22794;SDS011;11564;50.920;11.612;2023-06-14T04:45:16;3.30;;;3.10;;
22794;SDS011;11564;50.920;11.612;2023-06-14T04:47:42;2.80;;;2.60;;
22794;SDS011;11564;50.920;11.612;2023-06-14T04:50:09;4.27;;;3.00;;
22794;SDS011;11564;50.920;11.612;2023-06-14T04:52:36;4.20;;;3.27;;
22794;SDS011;11564;50.920;11.612;2023-06-14T04:55:02;6.60;;;2.77;;
22794;SDS011;11564;50.920;11.612;2023-06-14T04:57:28;3.57;;;3.27;;
22794;SDS011;11564;50.920;11.612;2023-06-14T04:59:54;4.30;;;3.60;;
22794;SDS011;11564;50.920;11.612;2023-06-14T05:02:20;5.63;;;3.07;;
22794;SDS011;11564;50.920;11.612;2023-06-14T05:04:58;3.30;;;3.00;;
22794;SDS011;11564;50.920;11.612;2023-06-14T05:07:26;3.40;;;3.20;;
22794;SDS011;11564;50.920;11.612;2023-06-14T05:09:52;4.57;;;2.87;;
22794;SDS011;11564;50.920;11.612;2023-06-14T05:12:17;3.50;;;3.20;;
22794;SDS011;11564;50.920;11.612;2023-06-14T05:14:43;3.67;;;3.37;;
22794;SDS011;11564;50.920;11.612;2023-06-14T05:17:10;4.23;;;3.40;;
22794;SDS011;11564;50.920;11.612;2023-06-14T05:19:35;4.00;;;3.03;;
22794;SDS011;11564;50.920;11.612;2023-06-14T05:22:01;3.20;;;3.00;;
22794;SDS011;11564;50.920;11.612;2023-06-14T05:24:28;3.20;;;2.90;;
22794;SDS011;11564;50.920;11.612;2023-06-14T05:26:55;5.93;;;4.20;;
22794;SDS011;11564;50.920;11.612;2023-06-14T05:29:21;3.83;;;2.97;;
22794;SDS011;11564;50.920;11.612;2023-06-14T05:31:47;4.50;;;3.47;;
22794;SDS011;11564;50.920;11.612;2023-06-14T05:34:12;3.57;;;3.20;;
22794;SDS011;11564;50.920;11.612;2023-06-14T05:36:38;4.27;;;2.63;;
22794;SDS011;11564;50.920;11.612;2023-06-14T05:39:04;5.67;;;3.10;;
22794;SDS011;11564;50.920;11.612;2023-06-14T05:41:30;4.57;;;3.00;;
22794;SDS011;11564;50.920;11.612;2023-06-14T05:43:56;5.13;;;2.87;;
22794;SDS011;11564;50.920;11.612;2023-06-14T05:46:23;3.23;;;3.03;;
22794;SDS011;11564;50.920;11.612;2023-06-14T05:48:52;4.10;;;3.80;;
22794;SDS011;11564;50.920;11.612;2023-06-14T05:51:18;7.43;;;4.10;;
22794;SDS011;11564;50.920;11.612;2023-06-14T05:53:47;4.00;;;3.70;;
22794;SDS011;11564;50.920;11.612;2023-06-14T05:56:13;6.93;;;4.20;;
22794;SDS011;11564;50.920;11.612;2023-06-14T05:58:40;5.73;;;4.00;;
22794;SDS011;11564;50.920;11.612;2023-06-14T06:01:06;5.80;;;3.37;;
22794;SDS011;11564;50.920;11.612;2023-06-14T06:03:31;6.30;;;4.00;;
22794;SDS011;11564;50.920;11.612;2023-06-14T06:05:58;3.43;;;3.13;;
22794;SDS011;11564;50.920;11.612;2023-06-14T06:08:23;4.10;;;3.80;;
22794;SDS011;11564;50.920;11.612;2023-06-14T06:10:49;5.03;;;3.63;;
22794;SDS011;11564;50.920;11.612;2023-06-14T06:13:15;4.80;;;3.67;;
22794;SDS011;11564;50.920;11.612;2023-06-14T06:15:41;3.87;;;3.30;;
22794;SDS011;11564;50.920;11.612;2023-06-14T06:18:06;6.73;;;3.60;;
22794;SDS011;11564;50.920;11.612;2023-06-14T06:20:32;6.30;;;4.10;;
22794;SDS011;11564;50.920;11.612;2023-06-14T06:22:58;3.53;;;2.70;;
22794;SDS011;11564;50.920;11.612;2023-06-14T06:25:24;8.50;;;4.20;;
22794;SDS011;11564;50.920;11.612;2023-06-14T06:27:52;3.80;;;3.50;;
22794;SDS011;11564;50.920;11.612;2023-06-14T06:30:19;5.60;;;4.27;;
22794;SDS011;11564;50.920;11.612;2023-06-14T06:32:45;4.73;;;4.03;;
22794;SDS011;11564;50.920;11.612;2023-06-14T06:35:11;4.67;;;3.73;;
22794;SDS011;11564;50.920;11.612;2023-06-14T06:37:37;7.33;;;3.73;;
22794;SDS011;11564;50.920;11.612;2023-06-14T06:40:03;5.80;;;3.50;;
22794;SDS011;11564;50.920;11.612;2023-06-14T06:42:31;4.20;;;3.80;;
22794;SDS011;11564;50.920;11.612;2023-06-14T06:44:57;3.60;;;3.20;;
22794;SDS011;11564;50.920;11.612;2023-06-14T06:47:23;7.47;;;3.93;;
22794;SDS011;11564;50.920;11.612;2023-06-14T06:49:49;8.07;;;3.90;;
22794;SDS011;11564;50.920;11.612;2023-06-14T06:52:15;4.37;;;3.43;;
22794;SDS011;11564;50.920;11.612;2023-06-14T06:54:41;10.70;;;3.53;;
22794;SDS011;11564;50.920;11.612;2023-06-14T06:57:06;4.40;;;4.00;;
22794;SDS011;11564;50.920;11.612;2023-06-14T06:59:32;5.37;;;4.00;;
22794;SDS011;11564;50.920;11.612;2023-06-14T07:01:59;4.70;;;3.67;;
22794;SDS011;11564;50.920;11.612;2023-06-14T07:04:24;4.77;;;4.30;;
22794;SDS011;11564;50.920;11.612;2023-06-14T07:06:50;9.20;;;3.60;;
22794;SDS011;11564;50.920;11.612;2023-06-14T07:09:16;7.23;;;4.13;;
22794;SDS011;11564;50.920;11.612;2023-06-14T07:11:45;8.40;;;2.70;;
22794;SDS011;11564;50.920;11.612;2023-06-14T07:14:11;8.83;;;3.40;;
22794;SDS011;11564;50.920;11.612;2023-06-14T07:16:37;5.07;;;3.80;;
22794;SDS011;11564;50.920;11.612;2023-06-14T07:19:03;4.17;;;3.83;;
22794;SDS011;11564;50.920;11.612;2023-06-14T07:21:29;5.90;;;4.30;;
22794;SDS011;11564;50.920;11.612;2023-06-14T07:23:55;4.13;;;3.33;;
22794;SDS011;11564;50.920;11.612;2023-06-14T07:26:20;6.17;;;3.50;;
22794;SDS011;11564;50.920;11.612;2023-06-14T07:28:47;8.40;;;4.40;;
22794;SDS011;11564;50.920;11.612;2023-06-14T07:31:13;4.33;;;3.63;;
22794;SDS011;11564;50.920;11.612;2023-06-14T07:33:40;6.83;;;3.83;;
22794;SDS011;11564;50.920;11.612;2023-06-14T07:36:06;10.07;;;4.13;;
22794;SDS011;11564;50.920;11.612;2023-06-14T07:38:32;3.10;;;2.80;;
22794;SDS011;11564;50.920;11.612;2023-06-14T07:40:57;3.50;;;3.20;;
22794;SDS011;11564;50.920;11.612;2023-06-14T07:43:23;4.37;;;3.90;;
22794;SDS011;11564;50.920;11.612;2023-06-14T07:45:48;3.67;;;3.47;;
22794;SDS011;11564;50.920;11.612;2023-06-14T07:48:14;5.20;;;4.20;;
22794;SDS011;11564;50.920;11.612;2023-06-14T07:50:40;4.33;;;4.00;;
22794;SDS011;11564;50.920;11.612;2023-06-14T07:53:06;3.73;;;3.43;;
22794;SDS011;11564;50.920;11.612;2023-06-14T07:55:31;4.70;;;3.90;;
22794;SDS011;11564;50.920;11.612;2023-06-14T07:57:58;6.47;;;3.90;;
22794;SDS011;11564;50.920;11.612;2023-06-14T08:00:24;3.90;;;3.60;;
22794;SDS011;11564;50.920;11.612;2023-06-14T08:02:49;8.07;;;4.00;;
22794;SDS011;11564;50.920;11.612;2023-06-14T08:05:17;6.20;;;3.90;;
22794;SDS011;11564;50.920;11.612;2023-06-14T08:07:42;5.90;;;4.00;;
22794;SDS011;11564;50.920;11.612;2023-06-14T08:10:08;8.37;;;4.33;;
22794;SDS011;11564;50.920;11.612;2023-06-14T08:12:34;6.20;;;4.23;;
22794;SDS011;11564;50.920;11.612;2023-06-14T08:14:59;6.87;;;3.50;;
22794;SDS011;11564;50.920;11.612;2023-06-14T08:17:25;5.60;;;4.20;;
22794;SDS011;11564;50.920;11.612;2023-06-14T08:19:51;3.33;;;3.13;;
22794;SDS011;11564;50.920;11.612;2023-06-14T08:22:19;8.80;;;3.70;;
22794;SDS011;11564;50.920;11.612;2023-06-14T08:24:46;4.20;;;3.63;;
22794;SDS011;11564;50.920;11.612;2023-06-14T08:27:12;5.87;;;3.00;;
22794;SDS011;11564;50.920;11.612;2023-06-14T08:29:38;5.50;;;3.40;;
22794;SDS011;11564;50.920;11.612;2023-06-14T08:32:05;3.70;;;3.20;;
22794;SDS011;11564;50.920;11.612;2023-06-14T08:34:31;4.33;;;3.83;;
22794;SDS011;11564;50.920;11.612;2023-06-14T08:36:57;7.10;;;3.67;;
22794;SDS011;11564;50.920;11.612;2023-06-14T08:39:23;5.27;;;3.33;;
22794;SDS011;11564;50.920;11.612;2023-06-14T08:41:48;3.63;;;2.27;;
22794;SDS011;11564;50.920;11.612;2023-06-14T08:44:17;12.23;;;3.23;;
22794;SDS011;11564;50.920;11.612;2023-06-14T08:46:42;6.57;;;2.93;;
22794;SDS011;11564;50.920;11.612;2023-06-14T08:49:10;5.20;;;3.03;;
22794;SDS011;11564;50.920;11.612;2023-06-14T08:51:37;4.97;;;3.17;;
22794;SDS011;11564;50.920;11.612;2023-06-14T08:54:05;13.87;;;3.47;;
22794;SDS011;11564;50.920;11.612;2023-06-14T08:56:32;3.23;;;3.00;;
22794;SDS011;11564;50.920;11.612;2023-06-14T08:58:59;5.50;;;3.33;;
22794;SDS011;11564;50.920;11.612;2023-06-14T09:01:33;6.93;;;3.47;;
22794;SDS011;11564;50.920;11.612;2023-06-14T09:03:59;4.73;;;2.87;;
22794;SDS011;11564;50.920;11.612;2023-06-14T09:06:25;3.70;;;2.80;;
22794;SDS011;11564;50.920;11.612;2023-06-14T09:08:53;4.37;;;2.83;;
22794;SDS011;11564;50.920;11.612;2023-06-14T09:11:22;3.40;;;3.20;;
22794;SDS011;11564;50.920;11.612;2023-06-14T09:13:48;7.90;;;3.20;;
22794;SDS011;11564;50.920;11.612;2023-06-14T09:16:14;4.10;;;2.90;;
22794;SDS011;11564;50.920;11.612;2023-06-14T09:18:41;4.47;;;3.07;;
22794;SDS011;11564;50.920;11.612;2023-06-14T09:21:13;3.30;;;3.00;;
22794;SDS011;11564;50.920;11.612;2023-06-14T09:23:43;7.70;;;3.27;;
22794;SDS011;11564;50.920;11.612;2023-06-14T09:26:10;8.90;;;2.83;;
22794;SDS011;11564;50.920;11.612;2023-06-14T09:28:44;3.93;;;2.93;;
22794;SDS011;11564;50.920;11.612;2023-06-14T09:31:11;9.33;;;2.80;;
22794;SDS011;11564;50.920;11.612;2023-06-14T09:33:38;3.87;;;3.53;;
22794;SDS011;11564;50.920;11.612;2023-06-14T09:36:10;3.30;;;2.73;;
22794;SDS011;11564;50.920;11.612;2023-06-14T09:38:39;2.77;;;2.57;;
22794;SDS011;11564;50.920;11.612;2023-06-14T09:41:05;5.00;;;2.90;;
22794;SDS011;11564;50.920;11.612;2023-06-14T09:43:31;10.93;;;3.53;;
22794;SDS011;11564;50.920;11.612;2023-06-14T09:46:00;3.50;;;2.80;;
22794;SDS011;11564;50.920;11.612;2023-06-14T09:48:26;3.03;;;2.83;;
22794;SDS011;11564;50.920;11.612;2023-06-14T09:50:52;3.17;;;2.90;;
22794;SDS011;11564;50.920;11.612;2023-06-14T09:53:23;3.10;;;2.80;;
22794;SDS011;11564;50.920;11.612;2023-06-14T09:55:49;3.17;;;2.73;;
22794;SDS011;11564;50.920;11.612;2023-06-14T09:58:20;6.37;;;2.57;;
22794;SDS011;11564;50.920;11.612;2023-06-14T10:00:48;3.17;;;2.97;;
22794;SDS011;11564;50.920;11.612;2023-06-14T10:03:19;5.73;;;2.77;;
22794;SDS011;11564;50.920;11.612;2023-06-14T10:05:49;3.07;;;2.87;;
22794;SDS011;11564;50.920;11.612;2023-06-14T10:08:16;2.47;;;2.27;;
22794;SDS011;11564;50.920;11.612;2023-06-14T10:10:46;3.27;;;2.40;;
22794;SDS011;11564;50.920;11.612;2023-06-14T10:13:11;2.93;;;2.57;;
22794;SDS011;11564;50.920;11.612;2023-06-14T10:18:24;2.73;;;2.30;;
22794;SDS011;11564;50.920;11.612;2023-06-14T10:23:25;3.10;;;2.60;;
22794;SDS011;11564;50.920;11.612;2023-06-14T10:25:56;8.73;;;2.70;;
22794;SDS011;11564;50.920;11.612;2023-06-14T10:28:22;4.97;;;2.80;;
22794;SDS011;11564;50.920;11.612;2023-06-14T10:31:02;3.40;;;2.47;;
22794;SDS011;11564;50.920;11.612;2023-06-14T10:33:32;5.33;;;2.90;;
22794;SDS011;11564;50.920;11.612;2023-06-14T10:39:10;2.27;;;2.17;;
22794;SDS011;11564;50.920;11.612;2023-06-14T10:41:40;8.47;;;2.53;;
22794;SDS011;11564;50.920;11.612;2023-06-14T10:46:38;5.13;;;2.60;;
22794;SDS011;11564;50.920;11.612;2023-06-14T10:49:05;2.50;;;2.30;;
22794;SDS011;11564;50.920;11.612;2023-06-14T10:51:37;3.30;;;2.60;;
22794;SDS011;11564;50.920;11.612;2023-06-14T10:54:14;5.73;;;2.43;;
22794;SDS011;11564;50.920;11.612;2023-06-14T10:56:48;2.40;;;2.20;;
22794;SDS011;11564;50.920;11.612;2023-06-14T10:59:16;11.73;;;2.10;;
22794;SDS011;11564;50.920;11.612;2023-06-14T11:04:51;2.80;;;2.57;;
22794;SDS011;11564;50.920;11.612;2023-06-14T11:12:42;3.00;;;2.30;;
22794;SDS011;11564;50.920;11.612;2023-06-14T11:15:12;2.93;;;2.30;;
22794;SDS011;11564;50.920;11.612;2023-06-14T11:17:38;5.97;;;2.43;;
22794;SDS011;11564;50.920;11.612;2023-06-14T11:20:08;5.57;;;2.50;;
22794;SDS011;11564;50.920;11.612;2023-06-14T11:22:43;2.60;;;2.40;;
22794;SDS011;11564;50.920;11.612;2023-06-14T11:25:09;2.33;;;2.13;;
22794;SDS011;11564;50.920;11.612;2023-06-14T11:27:36;3.53;;;2.57;;
22794;SDS011;11564;50.920;11.612;2023-06-14T11:30:02;4.20;;;2.63;;
22794;SDS011;11564;50.920;11.612;2023-06-14T11:32:28;2.83;;;2.53;;
22794;SDS011;11564;50.920;11.612;2023-06-14T11:34:56;4.30;;;2.30;;
22794;SDS011;11564;50.920;11.612;2023-06-14T11:37:23;5.53;;;2.23;;
22794;SDS011;11564;50.920;11.612;2023-06-14T11:39:51;5.10;;;2.63;;
22794;SDS011;11564;50.920;11.612;2023-06-14T11:42:17;3.83;;;2.50;;
22794;SDS011;11564;50.920;11.612;2023-06-14T11:44:45;3.13;;;2.83;;
22794;SDS011;11564;50.920;11.612;2023-06-14T11:47:11;3.63;;;2.33;;
22794;SDS011;11564;50.920;11.612;2023-06-14T11:49:37;3.60;;;2.80;;
22794;SDS011;11564;50.920;11.612;2023-06-14T11:52:03;3.00;;;2.80;;
22794;SDS011;11564;50.920;11.612;2023-06-14T11:54:30;2.70;;;2.40;;
22794;SDS011;11564;50.920;11.612;2023-06-14T11:56:56;3.27;;;1.90;;
22794;SDS011;11564;50.920;11.612;2023-06-14T11:59:23;2.80;;;2.60;;
22794;SDS011;11564;50.920;11.612;2023-06-14T12:01:49;2.37;;;2.27;;
22794;SDS011;11564;50.920;11.612;2023-06-14T12:04:22;3.00;;;2.43;;
22794;SDS011;11564;50.920;11.612;2023-06-14T12:06:51;8.63;;;2.67;;
22794;SDS011;11564;50.920;11.612;2023-06-14T12:09:18;3.90;;;2.63;;
22794;SDS011;11564;50.920;11.612;2023-06-14T12:11:44;4.47;;;2.57;;
22794;SDS011;11564;50.920;11.612;2023-06-14T12:14:10;3.60;;;3.30;;
22794;SDS011;11564;50.920;11.612;2023-06-14T12:16:39;3.83;;;2.27;;
22794;SDS011;11564;50.920;11.612;2023-06-14T12:19:16;3.10;;;2.70;;
22794;SDS011;11564;50.920;11.612;2023-06-14T12:21:42;2.67;;;2.40;;
22794;SDS011;11564;50.920;11.612;2023-06-14T12:24:13;3.03;;;2.70;;
22794;SDS011;11564;50.920;11.612;2023-06-14T12:26:39;2.80;;;2.60;;
22794;SDS011;11564;50.920;11.612;2023-06-14T12:29:06;2.67;;;2.47;;
22794;SDS011;11564;50.920;11.612;2023-06-14T12:31:35;3.23;;;2.60;;
22794;SDS011;11564;50.920;11.612;2023-06-14T12:34:00;3.23;;;2.50;;
22794;SDS011;11564;50.920;11.612;2023-06-14T12:36:26;7.70;;;2.60;;
22794;SDS011;11564;50.920;11.612;2023-06-14T12:38:52;5.23;;;2.43;;
22794;SDS011;11564;50.920;11.612;2023-06-14T12:41:19;3.33;;;2.53;;
22794;SDS011;11564;50.920;11.612;2023-06-14T12:43:47;4.13;;;1.87;;
22794;SDS011;11564;50.920;11.612;2023-06-14T12:46:13;4.10;;;2.80;;
22794;SDS011;11564;50.920;11.612;2023-06-14T12:48:38;4.20;;;2.43;;
22794;SDS011;11564;50.920;11.612;2023-06-14T12:51:04;2.00;;;1.90;;
22794;SDS011;11564;50.920;11.612;2023-06-14T12:53:30;3.20;;;3.00;;
22794;SDS011;11564;50.920;11.612;2023-06-14T12:55:55;2.80;;;2.60;;
22794;SDS011;11564;50.920;11.612;2023-06-14T12:58:21;2.43;;;2.33;;
22794;SDS011;11564;50.920;11.612;2023-06-14T13:00:48;2.70;;;2.23;;
22794;SDS011;11564;50.920;11.612;2023-06-14T13:03:14;5.87;;;2.80;;
22794;SDS011;11564;50.920;11.612;2023-06-14T13:05:40;5.90;;;2.60;;
22794;SDS011;11564;50.920;11.612;2023-06-14T13:08:07;3.63;;;2.10;;
22794;SDS011;11564;50.920;11.612;2023-06-14T13:10:36;3.50;;;2.43;;
22794;SDS011;11564;50.920;11.612;2023-06-14T13:13:01;8.33;;;2.30;;
22794;SDS011;11564;50.920;11.612;2023-06-14T13:15:27;2.40;;;2.17;;
22794;SDS011;11564;50.920;11.612;2023-06-14T13:17:53;2.43;;;2.23;;
22794;SDS011;11564;50.920;11.612;2023-06-14T13:20:19;4.10;;;2.13;;
22794;SDS011;11564;50.920;11.612;2023-06-14T13:22:44;4.60;;;2.00;;
22794;SDS011;11564;50.920;11.612;2023-06-14T13:25:10;2.10;;;1.90;;
22794;SDS011;11564;50.920;11.612;2023-06-14T13:27:35;5.00;;;1.60;;
22794;SDS011;11564;50.920;11.612;2023-06-14T13:30:02;2.83;;;1.67;;
22794;SDS011;11564;50.920;11.612;2023-06-14T13:32:30;2.30;;;1.43;;
22794;SDS011;11564;50.920;11.612;2023-06-14T13:34:56;2.00;;;1.80;;
22794;SDS011;11564;50.920;11.612;2023-06-14T13:37:21;3.53;;;1.80;;
22794;SDS011;11564;50.920;11.612;2023-06-14T13:39:47;1.70;;;1.60;;
22794;SDS011;11564;50.920;11.612;2023-06-14T13:42:13;1.97;;;1.60;;
22794;SDS011;11564;50.920;11.612;2023-06-14T13:44:38;1.40;;;1.30;;
22794;SDS011;11564;50.920;11.612;2023-06-14T13:47:04;4.40;;;1.40;;
22794;SDS011;11564;50.920;11.612;2023-06-14T13:49:30;1.57;;;1.47;;
22794;SDS011;11564;50.920;11.612;2023-06-14T13:51:56;2.07;;;1.10;;
22794;SDS011;11564;50.920;11.612;2023-06-14T13:54:22;2.10;;;1.13;;
22794;SDS011;11564;50.920;11.612;2023-06-14T13:56:48;5.20;;;1.13;;
22794;SDS011;11564;50.920;11.612;2023-06-14T13:59:13;6.57;;;1.17;;
22794;SDS011;11564;50.920;11.612;2023-06-14T14:01:39;1.40;;;1.30;;
22794;SDS011;11564;50.920;11.612;2023-06-14T14:04:05;3.03;;;0.80;;
22794;SDS011;11564;50.920;11.612;2023-06-14T14:06:31;12.10;;;0.93;;
22794;SDS011;11564;50.920;11.612;2023-06-14T14:08:57;1.98;;;0.93;;
22794;SDS011;11564;50.920;11.612;2023-06-14T14:11:23;3.35;;;1.17;;
22794;SDS011;11564;50.920;11.612;2023-06-14T14:13:48;1.05;;;0.90;;
22794;SDS011;11564;50.920;11.612;2023-06-14T14:16:14;0.90;;;0.90;;
22794;SDS011;11564;50.920;11.612;2023-06-14T14:18:40;1.93;;;1.10;;
22794;SDS011;11564;50.920;11.612;2023-06-14T14:21:06;1.77;;;1.20;;
22794;SDS011;11564;50.920;11.612;2023-06-14T14:23:32;2.30;;;1.20;;
22794;SDS011;11564;50.920;11.612;2023-06-14T14:25:57;1.40;;;1.30;;
22794;SDS011;11564;50.920;11.612;2023-06-14T14:28:23;1.00;;;1.00;;
22794;SDS011;11564;50.920;11.612;2023-06-14T14:30:48;4.00;;;1.08;;
22794;SDS011;11564;50.920;11.612;2023-06-14T14:33:14;0.88;;;0.88;;
22794;SDS011;11564;50.920;11.612;2023-06-14T14:35:45;1.00;;;1.00;;
22794;SDS011;11564;50.920;11.612;2023-06-14T14:38:11;1.20;;;1.10;;
22794;SDS011;11564;50.920;11.612;2023-06-14T14:40:38;3.60;;;1.15;;
22794;SDS011;11564;50.920;11.612;2023-06-14T14:43:05;1.33;;;1.23;;
22794;SDS011;11564;50.920;11.612;2023-06-14T14:45:30;2.67;;;1.20;;
22794;SDS011;11564;50.920;11.612;2023-06-14T14:47:56;2.20;;;1.27;;
22794;SDS011;11564;50.920;11.612;2023-06-14T14:50:22;1.40;;;1.30;;
22794;SDS011;11564;50.920;11.612;2023-06-14T14:52:47;1.00;;;0.80;;
22794;SDS011;11564;50.920;11.612;2023-06-14T14:55:13;0.73;;;0.73;;